logo tempoitalia

Diretta Meteo Fairmont, Stati Uniti (USA)lunedì 31 agosto ore 00:56

Mappa
Sereno 22 °C Foschia 24 Ore: T.min 20 T.max 30
Ponente Sud Km/h 11.1 Punto di rugiada: 22 °C Umidità: 100% Visibilità: 10 Km
Il sole sorge alle: 06:40 Il sole tramonta alle: 19:55
31 Agosto 2026 00:56 tempo osservato: Foschia Foschia 22 100 1009 vento: Nord S 11.1
30 Agosto 2026 23:56 tempo osservato: Sereno Sereno 22 100 1009 vento: Nord S/SE 13
30 Agosto 2026 22:56 tempo osservato: Sereno Sereno 23 94 1009 vento: Nord S 13
30 Agosto 2026 21:56 tempo osservato: Sereno Sereno 23 94 1009 vento: Nord S/SE 16.7
30 Agosto 2026 20:56 tempo osservato: Sereno Sereno 24 88 1009 vento: Nord S/SE 20.3
30 Agosto 2026 19:56 tempo osservato: Sereno Sereno 26 83 1008 vento: Nord S 18.5
30 Agosto 2026 18:56 tempo osservato: Sereno Sereno 28 74 1008 vento: Nord S 24
30 Agosto 2026 17:56 tempo osservato: Sereno Sereno 29 70 1008 vento: Nord S 22.2
30 Agosto 2026 16:56 tempo osservato: Sereno Sereno 29 70 1007 vento: Nord S 18.5
30 Agosto 2026 15:56 tempo osservato: Sereno Sereno 30 66 1008 vento: Nord S 25.9
30 Agosto 2026 14:56 tempo osservato: Sereno Sereno 29 66 1008 vento: Nord S 25.9
30 Agosto 2026 13:56 tempo osservato: Sereno Sereno 30 62 1008 vento: Nord S 18.5
30 Agosto 2026 12:56 tempo osservato: Sereno Sereno 29 62 1008 vento: Nord S/SO 22.2
30 Agosto 2026 11:56 tempo osservato: Sereno Sereno 28 69 1009 vento: Nord S 13
30 Agosto 2026 10:56 tempo osservato: Sereno Sereno 26 73 1009 vento: Nord SO 9.3
30 Agosto 2026 09:56 tempo osservato: Sereno Sereno 26 73 1008 vento: Nord S 14.8
30 Agosto 2026 08:56 tempo osservato: Sereno Sereno 23 88 1008 vento: Nord S 11.1
30 Agosto 2026 07:56 tempo osservato: Sereno Sereno 21 100 1008 vento: Nord S 13
30 Agosto 2026 06:56 tempo osservato: Sereno Sereno 21 94 1008 vento: Nord S/SE 9.3
30 Agosto 2026 05:56 tempo osservato: Sereno Sereno 20 93 1008 vento: Nord N 0
30 Agosto 2026 04:56 tempo osservato: Sereno Sereno 20 93 1008 vento: Nord N 5.5
30 Agosto 2026 03:56 tempo osservato: Sereno Sereno 21 94 1008 vento: Nord N 0
30 Agosto 2026 02:56 tempo osservato: Sereno Sereno 20 100 1008 vento: Nord E/SE 9.3
30 Agosto 2026 01:56 tempo osservato: Sereno Sereno 22 94 1009 vento: Nord N 5.5